sensor_id;sensor_type;location;lat;lon;timestamp;P1;durP1;ratioP1;P2;durP2;ratioP2
2854;SDS011;1435;49.472;10.940;2022-10-16T00:00:10;1.73;;;1.20;;
2854;SDS011;1435;49.472;10.940;2022-10-16T00:05:13;3.53;;;1.50;;
2854;SDS011;1435;49.472;10.940;2022-10-16T00:10:15;2.30;;;1.47;;
2854;SDS011;1435;49.472;10.940;2022-10-16T00:15:17;1.67;;;1.50;;
2854;SDS011;1435;49.472;10.940;2022-10-16T00:20:20;5.10;;;1.30;;
2854;SDS011;1435;49.472;10.940;2022-10-16T00:25:22;2.50;;;1.60;;
2854;SDS011;1435;49.472;10.940;2022-10-16T00:30:24;2.20;;;1.33;;
2854;SDS011;1435;49.472;10.940;2022-10-16T00:35:28;4.37;;;1.80;;
2854;SDS011;1435;49.472;10.940;2022-10-16T00:40:31;5.80;;;1.80;;
2854;SDS011;1435;49.472;10.940;2022-10-16T00:45:33;3.40;;;1.67;;
2854;SDS011;1435;49.472;10.940;2022-10-16T00:50:36;3.93;;;1.60;;
2854;SDS011;1435;49.472;10.940;2022-10-16T00:55:39;6.20;;;2.53;;
2854;SDS011;1435;49.472;10.940;2022-10-16T01:00:40;3.37;;;1.57;;
2854;SDS011;1435;49.472;10.940;2022-10-16T01:05:44;4.57;;;2.17;;
2854;SDS011;1435;49.472;10.940;2022-10-16T01:10:54;3.77;;;1.60;;
2854;SDS011;1435;49.472;10.940;2022-10-16T01:15:59;1.50;;;1.40;;
2854;SDS011;1435;49.472;10.940;2022-10-16T01:21:08;3.13;;;1.97;;
2854;SDS011;1435;49.472;10.940;2022-10-16T01:26:18;3.00;;;1.77;;
2854;SDS011;1435;49.472;10.940;2022-10-16T01:31:33;3.60;;;1.47;;
2854;SDS011;1435;49.472;10.940;2022-10-16T01:36:39;2.03;;;1.73;;
2854;SDS011;1435;49.472;10.940;2022-10-16T01:41:43;3.27;;;1.50;;
2854;SDS011;1435;49.472;10.940;2022-10-16T01:46:50;2.80;;;1.50;;
2854;SDS011;1435;49.472;10.940;2022-10-16T01:51:55;8.27;;;1.83;;
2854;SDS011;1435;49.472;10.940;2022-10-16T01:56:59;3.10;;;1.90;;
2854;SDS011;1435;49.472;10.940;2022-10-16T02:02:07;4.07;;;1.50;;
2854;SDS011;1435;49.472;10.940;2022-10-16T02:07:11;3.20;;;1.97;;
2854;SDS011;1435;49.472;10.940;2022-10-16T02:12:15;3.77;;;1.90;;
2854;SDS011;1435;49.472;10.940;2022-10-16T02:17:22;2.20;;;1.90;;
2854;SDS011;1435;49.472;10.940;2022-10-16T02:22:26;2.67;;;2.10;;
2854;SDS011;1435;49.472;10.940;2022-10-16T02:27:31;2.80;;;2.07;;
2854;SDS011;1435;49.472;10.940;2022-10-16T02:32:37;2.97;;;1.93;;
2854;SDS011;1435;49.472;10.940;2022-10-16T02:37:42;2.40;;;1.83;;
2854;SDS011;1435;49.472;10.940;2022-10-16T02:42:44;3.80;;;2.20;;
2854;SDS011;1435;49.472;10.940;2022-10-16T02:47:47;1.90;;;1.50;;
2854;SDS011;1435;49.472;10.940;2022-10-16T02:52:49;2.30;;;2.10;;
2854;SDS011;1435;49.472;10.940;2022-10-16T02:57:51;1.70;;;1.60;;
2854;SDS011;1435;49.472;10.940;2022-10-16T03:02:54;3.40;;;2.00;;
2854;SDS011;1435;49.472;10.940;2022-10-16T03:07:56;6.87;;;3.10;;
2854;SDS011;1435;49.472;10.940;2022-10-16T03:13:00;2.73;;;2.10;;
2854;SDS011;1435;49.472;10.940;2022-10-16T03:18:03;2.67;;;1.77;;
2854;SDS011;1435;49.472;10.940;2022-10-16T03:23:04;4.93;;;2.20;;
2854;SDS011;1435;49.472;10.940;2022-10-16T03:28:08;4.00;;;1.77;;
2854;SDS011;1435;49.472;10.940;2022-10-16T03:33:11;4.20;;;2.10;;
2854;SDS011;1435;49.472;10.940;2022-10-16T03:38:13;2.30;;;2.10;;
2854;SDS011;1435;49.472;10.940;2022-10-16T03:43:14;2.63;;;1.63;;
2854;SDS011;1435;49.472;10.940;2022-10-16T03:48:18;5.63;;;3.50;;
2854;SDS011;1435;49.472;10.940;2022-10-16T03:53:19;2.23;;;1.70;;
2854;SDS011;1435;49.472;10.940;2022-10-16T03:58:21;2.80;;;2.07;;
2854;SDS011;1435;49.472;10.940;2022-10-16T04:03:24;2.70;;;2.10;;
2854;SDS011;1435;49.472;10.940;2022-10-16T04:08:26;2.43;;;1.80;;
2854;SDS011;1435;49.472;10.940;2022-10-16T04:13:28;2.20;;;2.07;;
2854;SDS011;1435;49.472;10.940;2022-10-16T04:18:31;6.97;;;2.20;;
2854;SDS011;1435;49.472;10.940;2022-10-16T04:23:33;2.30;;;2.10;;
2854;SDS011;1435;49.472;10.940;2022-10-16T04:28:35;2.07;;;1.90;;
2854;SDS011;1435;49.472;10.940;2022-10-16T04:33:38;2.40;;;1.77;;
2854;SDS011;1435;49.472;10.940;2022-10-16T04:38:39;2.10;;;1.83;;
2854;SDS011;1435;49.472;10.940;2022-10-16T04:43:41;3.27;;;2.37;;
2854;SDS011;1435;49.472;10.940;2022-10-16T04:48:44;2.90;;;2.00;;
2854;SDS011;1435;49.472;10.940;2022-10-16T04:53:46;3.40;;;3.20;;
2854;SDS011;1435;49.472;10.940;2022-10-16T04:58:48;5.23;;;2.50;;
2854;SDS011;1435;49.472;10.940;2022-10-16T05:03:51;2.50;;;1.80;;
2854;SDS011;1435;49.472;10.940;2022-10-16T05:08:53;2.37;;;2.17;;
2854;SDS011;1435;49.472;10.940;2022-10-16T05:13:55;2.43;;;2.23;;
2854;SDS011;1435;49.472;10.940;2022-10-16T05:18:58;5.37;;;2.60;;
2854;SDS011;1435;49.472;10.940;2022-10-16T05:24:00;3.20;;;2.30;;
2854;SDS011;1435;49.472;10.940;2022-10-16T05:29:01;3.20;;;2.40;;
2854;SDS011;1435;49.472;10.940;2022-10-16T05:34:05;5.47;;;2.43;;
2854;SDS011;1435;49.472;10.940;2022-10-16T05:39:06;5.47;;;2.33;;
2854;SDS011;1435;49.472;10.940;2022-10-16T05:44:08;3.13;;;2.43;;
2854;SDS011;1435;49.472;10.940;2022-10-16T05:49:11;3.27;;;2.07;;
2854;SDS011;1435;49.472;10.940;2022-10-16T05:54:13;3.00;;;2.37;;
2854;SDS011;1435;49.472;10.940;2022-10-16T05:59:15;3.33;;;2.43;;
2854;SDS011;1435;49.472;10.940;2022-10-16T06:04:18;4.30;;;2.57;;
2854;SDS011;1435;49.472;10.940;2022-10-16T06:09:20;5.70;;;2.60;;
2854;SDS011;1435;49.472;10.940;2022-10-16T06:14:22;6.80;;;2.47;;
2854;SDS011;1435;49.472;10.940;2022-10-16T06:19:25;2.57;;;2.37;;
2854;SDS011;1435;49.472;10.940;2022-10-16T06:24:26;3.80;;;2.77;;
2854;SDS011;1435;49.472;10.940;2022-10-16T06:29:28;4.07;;;3.07;;
2854;SDS011;1435;49.472;10.940;2022-10-16T06:34:31;2.70;;;2.50;;
2854;SDS011;1435;49.472;10.940;2022-10-16T06:39:33;2.80;;;2.60;;
2854;SDS011;1435;49.472;10.940;2022-10-16T06:44:35;3.03;;;2.00;;
2854;SDS011;1435;49.472;10.940;2022-10-16T06:49:38;2.73;;;2.53;;
2854;SDS011;1435;49.472;10.940;2022-10-16T06:54:39;2.87;;;2.30;;
2854;SDS011;1435;49.472;10.940;2022-10-16T06:59:41;3.13;;;2.83;;
2854;SDS011;1435;49.472;10.940;2022-10-16T07:04:44;3.70;;;3.33;;
2854;SDS011;1435;49.472;10.940;2022-10-16T07:09:46;3.00;;;2.80;;
2854;SDS011;1435;49.472;10.940;2022-10-16T07:14:47;3.40;;;2.60;;
2854;SDS011;1435;49.472;10.940;2022-10-16T07:19:53;2.80;;;2.60;;
2854;SDS011;1435;49.472;10.940;2022-10-16T07:24:55;5.27;;;3.93;;
2854;SDS011;1435;49.472;10.940;2022-10-16T07:29:57;2.80;;;2.60;;
2854;SDS011;1435;49.472;10.940;2022-10-16T07:35:00;4.20;;;3.00;;
2854;SDS011;1435;49.472;10.940;2022-10-16T07:40:02;3.43;;;3.13;;
2854;SDS011;1435;49.472;10.940;2022-10-16T07:45:04;6.47;;;4.10;;
2854;SDS011;1435;49.472;10.940;2022-10-16T07:50:09;4.77;;;3.30;;
2854;SDS011;1435;49.472;10.940;2022-10-16T07:55:10;3.97;;;3.67;;
2854;SDS011;1435;49.472;10.940;2022-10-16T08:00:12;6.73;;;3.63;;
2854;SDS011;1435;49.472;10.940;2022-10-16T08:05:16;6.27;;;2.90;;
2854;SDS011;1435;49.472;10.940;2022-10-16T08:10:18;6.03;;;3.07;;
2854;SDS011;1435;49.472;10.940;2022-10-16T08:15:21;3.87;;;3.30;;
2854;SDS011;1435;49.472;10.940;2022-10-16T08:20:24;3.67;;;3.37;;
2854;SDS011;1435;49.472;10.940;2022-10-16T08:25:26;6.97;;;6.20;;
2854;SDS011;1435;49.472;10.940;2022-10-16T08:30:28;4.57;;;4.17;;
2854;SDS011;1435;49.472;10.940;2022-10-16T08:35:31;3.23;;;3.03;;
2854;SDS011;1435;49.472;10.940;2022-10-16T08:40:33;3.70;;;2.87;;
2854;SDS011;1435;49.472;10.940;2022-10-16T08:45:40;4.77;;;3.50;;
2854;SDS011;1435;49.472;10.940;2022-10-16T08:50:52;3.27;;;2.77;;
2854;SDS011;1435;49.472;10.940;2022-10-16T08:55:55;3.03;;;2.83;;
2854;SDS011;1435;49.472;10.940;2022-10-16T09:00:59;5.90;;;3.20;;
2854;SDS011;1435;49.472;10.940;2022-10-16T09:06:09;4.50;;;4.10;;
2854;SDS011;1435;49.472;10.940;2022-10-16T09:11:21;2.67;;;2.47;;
2854;SDS011;1435;49.472;10.940;2022-10-16T09:16:32;3.40;;;2.60;;
2854;SDS011;1435;49.472;10.940;2022-10-16T09:21:40;3.70;;;2.90;;
2854;SDS011;1435;49.472;10.940;2022-10-16T09:26:44;3.60;;;2.90;;
2854;SDS011;1435;49.472;10.940;2022-10-16T09:31:46;3.40;;;3.10;;
2854;SDS011;1435;49.472;10.940;2022-10-16T09:36:50;5.57;;;2.63;;
2854;SDS011;1435;49.472;10.940;2022-10-16T09:41:52;4.23;;;2.93;;
2854;SDS011;1435;49.472;10.940;2022-10-16T09:47:02;3.27;;;2.23;;
2854;SDS011;1435;49.472;10.940;2022-10-16T09:52:09;3.70;;;2.80;;
2854;SDS011;1435;49.472;10.940;2022-10-16T09:57:13;5.20;;;2.30;;
2854;SDS011;1435;49.472;10.940;2022-10-16T10:02:15;4.80;;;4.10;;
2854;SDS011;1435;49.472;10.940;2022-10-16T10:07:20;5.47;;;4.97;;
2854;SDS011;1435;49.472;10.940;2022-10-16T10:12:26;4.57;;;4.07;;
2854;SDS011;1435;49.472;10.940;2022-10-16T10:17:29;5.23;;;4.00;;
2854;SDS011;1435;49.472;10.940;2022-10-16T10:22:40;3.70;;;3.30;;
2854;SDS011;1435;49.472;10.940;2022-10-16T10:27:47;4.90;;;2.97;;
2854;SDS011;1435;49.472;10.940;2022-10-16T10:33:12;2.97;;;2.77;;
2854;SDS011;1435;49.472;10.940;2022-10-16T10:38:29;2.97;;;2.20;;
2854;SDS011;1435;49.472;10.940;2022-10-16T10:43:42;7.07;;;3.33;;
2854;SDS011;1435;49.472;10.940;2022-10-16T10:48:59;4.50;;;3.63;;
2854;SDS011;1435;49.472;10.940;2022-10-16T10:54:16;2.73;;;2.53;;
2854;SDS011;1435;49.472;10.940;2022-10-16T10:59:43;5.27;;;2.80;;
2854;SDS011;1435;49.472;10.940;2022-10-16T11:05:00;2.40;;;2.20;;
2854;SDS011;1435;49.472;10.940;2022-10-16T11:10:20;2.90;;;2.50;;
2854;SDS011;1435;49.472;10.940;2022-10-16T11:15:27;5.57;;;2.60;;
2854;SDS011;1435;49.472;10.940;2022-10-16T11:20:33;3.00;;;2.37;;
2854;SDS011;1435;49.472;10.940;2022-10-16T11:25:40;4.70;;;2.40;;
2854;SDS011;1435;49.472;10.940;2022-10-16T11:30:44;3.57;;;2.77;;
2854;SDS011;1435;49.472;10.940;2022-10-16T11:35:51;2.40;;;2.30;;
2854;SDS011;1435;49.472;10.940;2022-10-16T11:41:00;6.33;;;3.10;;
2854;SDS011;1435;49.472;10.940;2022-10-16T11:46:07;4.13;;;3.03;;
2854;SDS011;1435;49.472;10.940;2022-10-16T11:51:14;2.40;;;2.20;;
2854;SDS011;1435;49.472;10.940;2022-10-16T11:56:21;2.57;;;2.33;;
2854;SDS011;1435;49.472;10.940;2022-10-16T12:01:26;2.83;;;2.43;;
2854;SDS011;1435;49.472;10.940;2022-10-16T12:06:34;3.00;;;2.80;;
2854;SDS011;1435;49.472;10.940;2022-10-16T12:11:40;3.73;;;2.23;;
2854;SDS011;1435;49.472;10.940;2022-10-16T12:16:50;3.00;;;2.03;;
2854;SDS011;1435;49.472;10.940;2022-10-16T12:21:54;2.63;;;2.00;;
2854;SDS011;1435;49.472;10.940;2022-10-16T12:26:59;1.73;;;1.60;;
2854;SDS011;1435;49.472;10.940;2022-10-16T12:32:02;2.00;;;1.67;;
2854;SDS011;1435;49.472;10.940;2022-10-16T12:37:08;2.03;;;1.80;;
2854;SDS011;1435;49.472;10.940;2022-10-16T12:42:22;2.53;;;1.90;;
2854;SDS011;1435;49.472;10.940;2022-10-16T12:47:36;2.70;;;1.70;;
2854;SDS011;1435;49.472;10.940;2022-10-16T12:52:39;4.10;;;1.80;;
2854;SDS011;1435;49.472;10.940;2022-10-16T12:57:48;3.60;;;1.60;;
2854;SDS011;1435;49.472;10.940;2022-10-16T13:03:11;1.80;;;1.70;;
2854;SDS011;1435;49.472;10.940;2022-10-16T13:08:38;3.37;;;2.00;;
2854;SDS011;1435;49.472;10.940;2022-10-16T13:14:02;2.47;;;1.90;;
2854;SDS011;1435;49.472;10.940;2022-10-16T13:19:18;4.20;;;1.90;;
2854;SDS011;1435;49.472;10.940;2022-10-16T13:24:36;4.27;;;1.83;;
2854;SDS011;1435;49.472;10.940;2022-10-16T13:29:52;2.97;;;1.80;;
2854;SDS011;1435;49.472;10.940;2022-10-16T13:35:00;3.07;;;1.73;;
2854;SDS011;1435;49.472;10.940;2022-10-16T13:40:09;2.93;;;1.87;;
2854;SDS011;1435;49.472;10.940;2022-10-16T13:45:22;1.63;;;1.53;;
2854;SDS011;1435;49.472;10.940;2022-10-16T13:50:25;2.20;;;1.80;;
2854;SDS011;1435;49.472;10.940;2022-10-16T13:55:26;4.90;;;1.70;;
2854;SDS011;1435;49.472;10.940;2022-10-16T14:00:30;2.90;;;1.57;;
2854;SDS011;1435;49.472;10.940;2022-10-16T14:05:32;1.70;;;1.60;;
2854;SDS011;1435;49.472;10.940;2022-10-16T14:10:34;2.40;;;1.60;;
2854;SDS011;1435;49.472;10.940;2022-10-16T14:15:37;3.57;;;1.77;;
2854;SDS011;1435;49.472;10.940;2022-10-16T14:20:39;2.00;;;1.13;;
2854;SDS011;1435;49.472;10.940;2022-10-16T14:25:41;2.03;;;1.83;;
2854;SDS011;1435;49.472;10.940;2022-10-16T14:30:50;2.10;;;1.70;;
2854;SDS011;1435;49.472;10.940;2022-10-16T14:36:01;5.37;;;1.80;;
2854;SDS011;1435;49.472;10.940;2022-10-16T14:41:05;3.93;;;1.97;;
2854;SDS011;1435;49.472;10.940;2022-10-16T14:46:11;3.40;;;1.90;;
2854;SDS011;1435;49.472;10.940;2022-10-16T14:51:14;3.73;;;1.90;;
2854;SDS011;1435;49.472;10.940;2022-10-16T14:56:18;10.33;;;2.43;;
2854;SDS011;1435;49.472;10.940;2022-10-16T15:01:25;3.47;;;1.83;;
2854;SDS011;1435;49.472;10.940;2022-10-16T15:06:27;3.80;;;1.73;;
2854;SDS011;1435;49.472;10.940;2022-10-16T15:11:28;3.70;;;2.20;;
2854;SDS011;1435;49.472;10.940;2022-10-16T15:16:33;3.07;;;1.50;;
2854;SDS011;1435;49.472;10.940;2022-10-16T15:21:35;6.33;;;2.27;;
2854;SDS011;1435;49.472;10.940;2022-10-16T15:26:36;2.97;;;1.70;;
2854;SDS011;1435;49.472;10.940;2022-10-16T15:31:39;3.47;;;2.00;;
2854;SDS011;1435;49.472;10.940;2022-10-16T15:36:42;5.23;;;2.07;;
2854;SDS011;1435;49.472;10.940;2022-10-16T15:41:44;12.47;;;3.37;;
2854;SDS011;1435;49.472;10.940;2022-10-16T15:46:51;13.23;;;2.80;;
2854;SDS011;1435;49.472;10.940;2022-10-16T15:51:55;3.53;;;2.20;;
2854;SDS011;1435;49.472;10.940;2022-10-16T15:56:57;6.10;;;2.13;;
2854;SDS011;1435;49.472;10.940;2022-10-16T16:02:00;3.20;;;1.83;;
2854;SDS011;1435;49.472;10.940;2022-10-16T16:07:02;5.37;;;2.50;;
2854;SDS011;1435;49.472;10.940;2022-10-16T16:12:07;8.47;;;2.30;;
2854;SDS011;1435;49.472;10.940;2022-10-16T16:17:10;3.43;;;2.57;;
2854;SDS011;1435;49.472;10.940;2022-10-16T16:22:11;5.33;;;2.47;;
2854;SDS011;1435;49.472;10.940;2022-10-16T16:27:13;5.43;;;2.87;;
2854;SDS011;1435;49.472;10.940;2022-10-16T16:32:16;4.93;;;2.90;;
2854;SDS011;1435;49.472;10.940;2022-10-16T16:37:18;7.17;;;3.43;;
2854;SDS011;1435;49.472;10.940;2022-10-16T16:42:20;8.50;;;2.93;;
2854;SDS011;1435;49.472;10.940;2022-10-16T16:47:23;5.10;;;3.27;;
2854;SDS011;1435;49.472;10.940;2022-10-16T16:52:25;5.37;;;2.80;;
2854;SDS011;1435;49.472;10.940;2022-10-16T16:57:29;5.90;;;3.33;;
2854;SDS011;1435;49.472;10.940;2022-10-16T17:02:32;5.60;;;2.90;;
2854;SDS011;1435;49.472;10.940;2022-10-16T17:07:34;3.23;;;2.70;;
2854;SDS011;1435;49.472;10.940;2022-10-16T17:12:36;5.43;;;3.17;;
2854;SDS011;1435;49.472;10.940;2022-10-16T17:17:39;5.67;;;3.13;;
2854;SDS011;1435;49.472;10.940;2022-10-16T17:22:41;7.40;;;3.87;;
2854;SDS011;1435;49.472;10.940;2022-10-16T17:27:44;10.43;;;4.60;;
2854;SDS011;1435;49.472;10.940;2022-10-16T17:32:47;8.47;;;3.77;;
2854;SDS011;1435;49.472;10.940;2022-10-16T17:37:50;9.57;;;3.87;;
2854;SDS011;1435;49.472;10.940;2022-10-16T17:42:52;8.03;;;3.53;;
2854;SDS011;1435;49.472;10.940;2022-10-16T17:47:58;11.40;;;3.60;;
2854;SDS011;1435;49.472;10.940;2022-10-16T17:53:00;10.90;;;4.20;;
2854;SDS011;1435;49.472;10.940;2022-10-16T17:58:01;12.10;;;5.10;;
2854;SDS011;1435;49.472;10.940;2022-10-16T18:03:04;6.23;;;4.60;;
2854;SDS011;1435;49.472;10.940;2022-10-16T18:08:06;9.17;;;5.00;;
2854;SDS011;1435;49.472;10.940;2022-10-16T18:13:08;8.47;;;6.00;;
2854;SDS011;1435;49.472;10.940;2022-10-16T18:18:12;8.93;;;5.13;;
2854;SDS011;1435;49.472;10.940;2022-10-16T18:23:14;5.93;;;4.13;;
2854;SDS011;1435;49.472;10.940;2022-10-16T18:28:15;6.20;;;3.67;;
2854;SDS011;1435;49.472;10.940;2022-10-16T18:33:18;9.80;;;4.60;;
2854;SDS011;1435;49.472;10.940;2022-10-16T18:38:20;7.27;;;4.13;;
2854;SDS011;1435;49.472;10.940;2022-10-16T18:43:22;4.17;;;3.03;;
2854;SDS011;1435;49.472;10.940;2022-10-16T18:48:26;6.03;;;3.30;;
2854;SDS011;1435;49.472;10.940;2022-10-16T18:53:29;5.87;;;3.63;;
2854;SDS011;1435;49.472;10.940;2022-10-16T18:58:32;6.40;;;3.90;;
2854;SDS011;1435;49.472;10.940;2022-10-16T19:03:35;4.00;;;3.20;;
2854;SDS011;1435;49.472;10.940;2022-10-16T19:08:37;4.07;;;3.67;;
2854;SDS011;1435;49.472;10.940;2022-10-16T19:13:39;5.03;;;3.50;;
2854;SDS011;1435;49.472;10.940;2022-10-16T19:18:42;5.73;;;3.60;;
2854;SDS011;1435;49.472;10.940;2022-10-16T19:23:44;6.60;;;3.77;;
2854;SDS011;1435;49.472;10.940;2022-10-16T19:28:47;4.57;;;4.13;;
2854;SDS011;1435;49.472;10.940;2022-10-16T19:33:51;4.53;;;3.63;;
2854;SDS011;1435;49.472;10.940;2022-10-16T19:38:54;6.23;;;4.03;;
2854;SDS011;1435;49.472;10.940;2022-10-16T19:43:59;4.50;;;3.10;;
2854;SDS011;1435;49.472;10.940;2022-10-16T19:49:03;6.53;;;3.57;;
2854;SDS011;1435;49.472;10.940;2022-10-16T19:54:10;5.80;;;3.00;;
2854;SDS011;1435;49.472;10.940;2022-10-16T19:59:13;4.00;;;3.17;;
2854;SDS011;1435;49.472;10.940;2022-10-16T20:04:19;7.47;;;3.17;;
2854;SDS011;1435;49.472;10.940;2022-10-16T20:09:21;9.03;;;3.30;;
2854;SDS011;1435;49.472;10.940;2022-10-16T20:14:22;6.73;;;2.73;;
2854;SDS011;1435;49.472;10.940;2022-10-16T20:19:25;3.97;;;2.40;;
2854;SDS011;1435;49.472;10.940;2022-10-16T20:24:27;4.77;;;3.20;;
2854;SDS011;1435;49.472;10.940;2022-10-16T20:29:29;6.00;;;3.40;;
2854;SDS011;1435;49.472;10.940;2022-10-16T20:34:32;6.43;;;2.90;;
2854;SDS011;1435;49.472;10.940;2022-10-16T20:39:34;4.27;;;2.70;;
2854;SDS011;1435;49.472;10.940;2022-10-16T20:44:36;4.00;;;2.57;;
2854;SDS011;1435;49.472;10.940;2022-10-16T20:49:39;3.37;;;2.50;;
2854;SDS011;1435;49.472;10.940;2022-10-16T20:54:43;5.03;;;3.47;;
2854;SDS011;1435;49.472;10.940;2022-10-16T20:59:45;4.23;;;2.27;;
2854;SDS011;1435;49.472;10.940;2022-10-16T21:04:55;5.47;;;2.67;;
2854;SDS011;1435;49.472;10.940;2022-10-16T21:09:57;4.27;;;3.07;;
2854;SDS011;1435;49.472;10.940;2022-10-16T21:14:59;3.17;;;2.70;;
2854;SDS011;1435;49.472;10.940;2022-10-16T21:20:02;4.53;;;2.63;;
2854;SDS011;1435;49.472;10.940;2022-10-16T21:25:05;7.53;;;3.40;;
2854;SDS011;1435;49.472;10.940;2022-10-16T21:30:07;6.10;;;2.93;;
2854;SDS011;1435;49.472;10.940;2022-10-16T21:35:12;3.80;;;3.40;;
2854;SDS011;1435;49.472;10.940;2022-10-16T21:40:13;5.23;;;2.87;;
2854;SDS011;1435;49.472;10.940;2022-10-16T21:45:15;4.63;;;3.20;;
2854;SDS011;1435;49.472;10.940;2022-10-16T21:50:18;3.40;;;3.03;;
2854;SDS011;1435;49.472;10.940;2022-10-16T21:55:20;4.90;;;3.10;;
2854;SDS011;1435;49.472;10.940;2022-10-16T22:00:22;11.17;;;3.00;;
2854;SDS011;1435;49.472;10.940;2022-10-16T22:05:25;3.50;;;3.13;;
2854;SDS011;1435;49.472;10.940;2022-10-16T22:10:26;3.00;;;2.80;;
2854;SDS011;1435;49.472;10.940;2022-10-16T22:15:28;8.30;;;3.20;;
2854;SDS011;1435;49.472;10.940;2022-10-16T22:20:31;3.53;;;3.23;;
2854;SDS011;1435;49.472;10.940;2022-10-16T22:25:33;4.07;;;3.20;;
2854;SDS011;1435;49.472;10.940;2022-10-16T22:30:35;6.33;;;3.63;;
2854;SDS011;1435;49.472;10.940;2022-10-16T22:35:39;6.13;;;3.60;;
2854;SDS011;1435;49.472;10.940;2022-10-16T22:40:41;11.73;;;3.30;;
2854;SDS011;1435;49.472;10.940;2022-10-16T22:45:42;4.17;;;2.70;;
2854;SDS011;1435;49.472;10.940;2022-10-16T22:50:45;5.23;;;2.60;;
2854;SDS011;1435;49.472;10.940;2022-10-16T22:55:48;3.10;;;1.90;;
2854;SDS011;1435;49.472;10.940;2022-10-16T23:00:50;5.53;;;2.30;;
2854;SDS011;1435;49.472;10.940;2022-10-16T23:05:53;2.20;;;1.93;;
2854;SDS011;1435;49.472;10.940;2022-10-16T23:10:55;4.30;;;2.37;;
2854;SDS011;1435;49.472;10.940;2022-10-16T23:15:59;3.13;;;2.37;;
2854;SDS011;1435;49.472;10.940;2022-10-16T23:21:05;2.43;;;1.87;;
2854;SDS011;1435;49.472;10.940;2022-10-16T23:26:08;2.33;;;2.20;;
2854;SDS011;1435;49.472;10.940;2022-10-16T23:31:11;5.30;;;2.20;;
2854;SDS011;1435;49.472;10.940;2022-10-16T23:36:15;4.40;;;2.47;;
2854;SDS011;1435;49.472;10.940;2022-10-16T23:41:18;3.53;;;2.43;;
2854;SDS011;1435;49.472;10.940;2022-10-16T23:46:20;4.77;;;2.30;;
2854;SDS011;1435;49.472;10.940;2022-10-16T23:51:24;4.00;;;2.10;;
2854;SDS011;1435;49.472;10.940;2022-10-16T23:56:25;2.57;;;1.77;;
